地図

経路データ

SID SEASON NUMBER BASIN SUBBASIN NAME ISO_TIME NATURE LAT LON WMO_WIND WMO_PRES WMO_AGENCY TRACK_TYPE DIST2LAND LANDFALL IFLAG USA_AGENCY USA_ATCF_ID USA_LAT USA_LON USA_RECORD USA_STATUS USA_WIND USA_PRES USA_SSHS USA_R34_NE USA_R34_SE USA_R34_SW USA_R34_NW USA_R50_NE USA_R50_SE USA_R50_SW USA_R50_NW USA_R64_NE USA_R64_SE USA_R64_SW USA_R64_NW USA_POCI USA_ROCI USA_RMW USA_EYE TOKYO_LAT TOKYO_LON TOKYO_GRADE TOKYO_WIND TOKYO_PRES TOKYO_R50_DIR TOKYO_R50_LONG TOKYO_R50_SHORT TOKYO_R30_DIR TOKYO_R30_LONG TOKYO_R30_SHORT TOKYO_LAND CMA_LAT CMA_LON CMA_CAT CMA_WIND CMA_PRES HKO_LAT HKO_LON HKO_CAT HKO_WIND HKO_PRES NEWDELHI_LAT NEWDELHI_LON NEWDELHI_GRADE NEWDELHI_WIND NEWDELHI_PRES NEWDELHI_CI NEWDELHI_DP NEWDELHI_POCI REUNION_LAT REUNION_LON REUNION_TYPE REUNION_WIND REUNION_PRES REUNION_TNUM REUNION_CI REUNION_RMW REUNION_R34_NE REUNION_R34_SE REUNION_R34_SW REUNION_R34_NW REUNION_R50_NE REUNION_R50_SE REUNION_R50_SW REUNION_R50_NW REUNION_R64_NE REUNION_R64_SE REUNION_R64_SW REUNION_R64_NW BOM_LAT BOM_LON BOM_TYPE BOM_WIND BOM_PRES BOM_TNUM BOM_CI BOM_RMW BOM_R34_NE BOM_R34_SE BOM_R34_SW BOM_R34_NW BOM_R50_NE BOM_R50_SE BOM_R50_SW BOM_R50_NW BOM_R64_NE BOM_R64_SE BOM_R64_SW BOM_R64_NW BOM_ROCI BOM_POCI BOM_EYE BOM_POS_METHOD BOM_PRES_METHOD NADI_LAT NADI_LON NADI_CAT NADI_WIND NADI_PRES WELLINGTON_LAT WELLINGTON_LON WELLINGTON_WIND WELLINGTON_PRES DS824_LAT DS824_LON DS824_STAGE DS824_WIND DS824_PRES TD9636_LAT TD9636_LON TD9636_STAGE TD9636_WIND TD9636_PRES TD9635_LAT TD9635_LON TD9635_WIND TD9635_PRES TD9635_ROCI NEUMANN_LAT NEUMANN_LON NEUMANN_CLASS NEUMANN_WIND NEUMANN_PRES MLC_LAT MLC_LON MLC_CLASS MLC_WIND MLC_PRES USA_GUST BOM_GUST BOM_GUST_PER REUNION_GUST REUNION_GUST_PER USA_SEAHGT USA_SEARAD_NE USA_SEARAD_SE USA_SEARAD_SW USA_SEARAD_NW STORM_SPEED STORM_DIR
2007330N10141 2007 87 WP MM NOT_NAMED 2007-11-26 06:00:00 NR 9.60000 141.100 main 1295 1286 O_____________ jtwc_wp WP262007 9.60000 141.100 DB 15 1004 -3 1010 180 45 11 285
2007330N10141 2007 87 WP MM NOT_NAMED 2007-11-26 09:00:00 NR 9.74522 140.568 main 1286 1283 P_____________ WP262007 9.74522 140.568 DB 15 1004 -3 1009 190 45 11 292
2007330N10141 2007 87 WP MM NOT_NAMED 2007-11-26 12:00:00 NR 10.0000 140.100 main 1296 1296 O_____________ jtwc_wp WP262007 10.0000 140.100 DB 15 1004 -3 1008 200 45 11 311
2007330N10141 2007 87 WP MM NOT_NAMED 2007-11-26 15:00:00 NR 10.4524 139.735 main 1334 1334 P_____________ WP262007 10.4524 139.735 DB 15 1007 -3 1009 205 42 13 328
2007330N10141 2007 87 WP MM NOT_NAMED 2007-11-26 18:00:00 NR 11.1000 139.400 main 1387 1387 O_____________ jtwc_wp WP262007 11.1000 139.400 DB 15 1010 -3 1011 210 40 16 335
2007330N10141 2007 87 WP MM NOT_NAMED 2007-11-26 21:00:00 NR 11.9123 139.045 main 1432 1407 P_____________ WP262007 11.9123 139.045 DB 17 1005 -3 1011 210 40 19 335
2007330N10141 2007 87 WP MM NOT_NAMED 2007-11-27 00:00:00 NR 12.8000 138.600 main 1407 1355 O_____________ jtwc_wp WP262007 12.8000 138.600 DB 20 1000 -3 1011 210 40 20 327
2007330N10141 2007 87 WP MM NOT_NAMED 2007-11-27 03:00:00 NR 13.6004 137.928 main 1347 1300 P_____________ WP262007 13.6004 137.928 DB 20 1000 -3 1008 215 40 20 322
2007330N10141 2007 87 WP MM NOT_NAMED 2007-11-27 06:00:00 NR 14.4000 137.300 main 1300 1282 O_____________ jtwc_wp WP262007 14.4000 137.300 DB 20 1000 -3 1006 220 40 19 330
2007330N10141 2007 87 WP MM NOT_NAMED 2007-11-27 09:00:00 NR 15.2347 136.952 main 1287 1279 P_____________ WP262007 15.2347 136.952 DB 20 999 -3 1006 220 37 18 344
2007330N10141 2007 87 WP MM NOT_NAMED 2007-11-27 12:00:00 NR 16.1000 136.800 main 1294 1294 O_____________ jtwc_wp WP262007 16.1000 136.800 DB 20 999 -3 1006 220 35 18 354
2007330N10141 2007 87 WP MM NOT_NAMED 2007-11-27 15:00:00 NR 16.9850 136.769 main 1329 1329 P_____________ WP262007 16.9850 136.769 DB 20 1003 -3 1007 215 37 18 1
2007330N10141 2007 87 WP MM NOT_NAMED 2007-11-27 18:00:00 NR 17.9000 136.800 main 1370 1370 O_____________ jtwc_wp WP262007 17.9000 136.800 DB 20 1007 -3 1008 210 40 19 359
2007330N10141 2007 87 WP MM NOT_NAMED 2007-11-27 21:00:00 NR 18.8350 136.728 main 1408 1398 P_____________ WP262007 18.8350 136.728 DB 20 1005 -3 19 357
2007330N10141 2007 87 WP MM NOT_NAMED 2007-11-28 00:00:00 NR 19.8000 136.700 main 1387 1301 O_____________ jtwc_wp WP262007 19.8000 136.700 DB 20 1004 -3 20 2
2007330N10141 2007 87 WP MM NOT_NAMED 2007-11-28 03:00:00 NR 20.7850 136.805 main 1291 1212 P_____________ WP262007 20.7850 136.805 DB 22 1004 -3 20 8
2007330N10141 2007 87 WP MM NOT_NAMED 2007-11-28 06:00:00 NR 21.8000 137.000 main 1203 1118 O_____________ jtwc_wp WP262007 21.8000 137.000 DB 25 1004 -3 1005 220 40 21 11
2007330N10141 2007 87 WP MM NOT_NAMED 2007-11-28 09:00:00 NR 22.8425 137.228 main 1118 1039 P_____________ WP262007 22.8425 137.228 DB 25 1002 -3 1004 220 40 22 12
2007330N10141 2007 87 WP MM NOT_NAMED 2007-11-28 12:00:00 TS 23.9000 137.500 main 1029 952 O_____________ jtwc_wp WP262007 23.9000 137.500 TD 25 1000 -1 1004 220 40 22 13
2007330N10141 2007 87 WP MM NOT_NAMED 2007-11-28 15:00:00 TS 24.9346 137.749 main 952 865 P_____________ WP262007 24.9346 137.749 TD 25 1002 -1 1004 220 40 22 15
2007330N10141 2007 87 WP MM NOT_NAMED 2007-11-28 18:00:00 TS 26.0000 138.100 main 855 749 O_____________ jtwc_wp WP262007 26.0000 138.100 TD 25 1004 -1 1005 220 40 24 18
2007330N10141 2007 87 WP MM NOT_NAMED 2007-11-28 21:00:00 TS 27.2088 138.573 main 741 664 P_____________ WP262007 27.2088 138.573 TD 25 1004 -1 1005 220 40 25 25
2007330N10141 2007 87 WP MM NOT_NAMED 2007-11-29 00:00:00 ET 28.3000 139.300 main 659 627 O_____________ jtwc_wp WP262007 28.3000 139.300 EX 25 1004 -4 1005 220 40 24 39
2007330N10141 2007 87 WP MM NOT_NAMED 2007-11-29 03:00:00 ET 29.0981 140.285 main 629 607 P_____________ WP262007 29.0981 140.285 EX 25 1004 -4 24 57
2007330N10141 2007 87 WP MM NOT_NAMED 2007-11-29 06:00:00 ET 29.6000 141.600 main 612 606 O_____________ jtwc_wp WP262007 29.6000 141.600 EX 25 1004 -4 27 74
2007330N10141 2007 87 WP MM NOT_NAMED 2007-11-29 09:00:00 ET 29.8307 143.218 main 647 647 P_____________ WP262007 29.8307 143.218 EX 22 1005 -4 30 84
2007330N10141 2007 87 WP MM NOT_NAMED 2007-11-29 12:00:00 ET 29.9000 145.000 main 730 O_____________ jtwc_wp WP262007 29.9000 145.000 EX 20 1007 -4 31 87

デジタル台風データ・検索

IBTrACS Databaseについて

本データベースは、米国NOAAが公開する1842年以降の世界の熱帯低気圧のベストトラックデータアーカイブInternational Best Track Archive for Climate Stewardship (IBTrACS)を、ウェブで閲覧しやすい形式に変換したものです。

最終更新日:2021-10-21